Weather observations for the past three days for
Santa Ynez, Santa Ynez Airport
Metric (Imperial)
Date Time (pdt) Wind (kph) Vis. (km) Weather Sky Cond. Temperature (ºC) Relative Humidity Wind Chill (°C) Heat Index (°C) Pressure Precipitation (cm)
Air Dwpt 6 hour altimeter (cm) sea level (mb) 1 hr 3 hr 6 hr
Max. Min.
05 05:15 Calm 0.40 Fog OVC002 13 13 100% 76.02 0.0
05 04:55 Calm 1.21 Fog/Mist OVC002 13 13 100% 76 0.0
05 04:35 Calm 1.21 Fog/Mist OVC003 13 13 100% 76.02 0.0
05 04:15 Calm 2.82 Fog/Mist OVC003 13 13 100% 76.02 0.0
05 03:55 Calm 9.66 Fog/Mist OVC004 13 13 100% 76.02 0.0
05 03:35 Calm 16.09 Overcast OVC004 13 13 100% 76.02 0.0
05 03:15 Calm 16.09 Overcast OVC005 13 13 100% 76.05 0.0
05 02:55 Calm 16.09 Overcast OVC006 13 13 100% 76.05 0.0
05 02:35 Calm 16.09 Mostly Cloudy BKN006 13 13 100% 76.05 0.0
05 02:15 Calm 16.09 Partly Cloudy SCT005 13 13 100% 76.07 0.0
05 01:55 Calm 16.09 A Few Clouds FEW005 13 13 100% 76.07 0.0
05 01:35 Calm 16.09 Fair CLR 13 13 100% 76.07 0.0
05 01:15 Calm 16.09 Fair CLR 13 13 100% 76.07 0.0
05 00:55 Calm 16.09 Fair CLR 13 13 100% 76.1 0.0
05 00:35 Calm 16.09 Fair CLR 14 14 100% 76.1 0.0
05 00:15 Calm 16.09 Fair CLR 14 14 100% 76.1 0.0
04 23:55 Calm 16.09 Fair CLR 14 14 100% 76.07 0.0
04 23:35 Calm 16.09 Fair CLR 15 14 94% 76.07 0.0
04 23:15 Calm 16.09 Fair CLR 15 14 94% 76.07 0.0
04 22:55 Calm 16.09 Fair CLR 15 14 94% 76.07 0.0
04 22:35 Calm 16.09 Fair CLR 15 15 100% 76.07 0.0
04 22:15 Calm 16.09 Fair CLR 15 15 100% 76.1 0.0
04 21:55 Calm 16.09 Fair CLR 16 15 94% 76.1 0.0
04 21:35 Calm 16.09 Fair CLR 16 15 94% 76.07 0.0
04 21:15 Calm 16.09 Fair CLR 16 15 94% 76.07 0.0
04 20:55 SW 11 16.09 Fair CLR 17 15 88% 76.07 0.0
04 20:35 W 11 16.09 Fair CLR 17 15 88% 76.05 0.0
04 20:15 W 7 16.09 Fair CLR 18 15 83% 76.02 0.0
04 19:55 W 15 16.09 Fair CLR 19 15 78% 76 0.0
04 19:35 W 17 16.09 Fair CLR 20 14 69% 76 0.0
04 19:15 W 17 16.09 Fair CLR 21 14 64% 75.97 0.0
04 18:55 W 15 16.09 Fair CLR 22 14 61% 75.97 0.0
04 18:35 W 15 16.09 Fair CLR 22 14 61% 75.97 0.0
04 18:15 W 20 16.09 Fair CLR 23 15 61% 75.97 0.0
04 17:55 W 22 16.09 Fair CLR 24 15 57% 25 75.95 0.0
04 17:35 NW 24 16.09 Fair CLR 25 15 54% 26 75.95 0.0
04 17:15 W 22 16.09 Fair CLR 25 15 54% 26 75.95 0.0
04 16:55 W 20 G 30 16.09 Fair CLR 26 15 51% 27 75.95 0.0
04 16:35 W 24 16.09 Fair CLR 27 15 48% 27 75.95 0.0
04 16:15 W 15 G 26 16.09 Fair CLR 27 15 48% 27 75.92 0.0
04 15:55 SW 20 16.09 Fair CLR 27 15 48% 27 75.92 0.0
04 15:35 SW 20 16.09 Fair CLR 27 14 45% 27 75.95 0.0
04 15:15 SW 15 G 31 16.09 Fair CLR 28 14 42% 28 75.95 0.0
04 14:55 SW 19 16.09 Fair CLR 28 14 42% 28 75.95 0.0
04 14:35 W 17 16.09 Fair CLR 28 13 40% 28 75.92 0.0
04 14:15 SW 15 16.09 Fair CLR 28 10 32% 27 75.95 0.0
04 13:55 Calm 16.09 Fair CLR 28 9 30% 27 75.97 0.0
04 13:35 W 11 16.09 Fair CLR 27 9 32% 27 75.97 0.0
04 13:15 Vrbl 9 16.09 Fair CLR 27 8 30% 26 75.97 0.0
04 12:55 Vrbl 11 16.09 Fair CLR 26 9 34% 26 76 0.0
04 12:35 NW 9 16.09 Fair CLR 26 10 37% 26 76 0.0
04 12:15 Vrbl 9 16.09 Fair CLR 25 10 39% 26 76.02 0.0
04 11:35 NW 7 16.09 Fair CLR 23 12 50% 76.07 0.0
04 11:15 N 6 16.09 Fair CLR 22 12 53% 76.1 0.0
04 10:55 Vrbl 6 16.09 Fair CLR 21 13 60% 76.1 0.0
04 10:35 Calm 16.09 Fair CLR 20 13 64% 76.12 0.0
04 10:15 Vrbl 6 16.09 Fair CLR 19 13 68% 76.12 0.0
04 09:55 E 9 12.87 A Few Clouds FEW018 19 13 68% 76.12 0.0
04 09:35 Vrbl 11 16.09 Mostly Cloudy BKN017 18 13 73% 76.12 0.0
04 09:15 Vrbl 6 16.09 Overcast OVC016 17 13 77% 76.1 0.0
04 08:55 Vrbl 6 16.09 Overcast OVC016 17 13 77% 76.1 0.0
04 08:35 Calm 16.09 Overcast OVC016 17 13 77% 76.1 0.0
04 08:15 S 7 16.09 Overcast OVC015 16 13 83% 76.1 0.0
04 07:55 E 6 16.09 Overcast OVC015 16 13 83% 76.07 0.0
04 07:35 Calm 16.09 Overcast OVC015 16 13 83% 76.07 0.0
04 07:15 Calm 16.09 Overcast OVC015 16 13 83% 76.05 0.0
04 06:55 Calm 16.09 Overcast OVC015 15 13 88% 76.05 0.0
04 06:35 Calm 16.09 Overcast OVC015 15 13 88% 76.05 0.0
04 06:15 SE 9 16.09 Overcast OVC015 15 13 88% 76.02 0.0
04 05:55 SE 7 16.09 Overcast OVC015 15 13 88% 76.02 0.0
04 05:35 Calm 16.09 Overcast OVC014 15 13 88% 76.02 0.0
04 05:15 Calm 16.09 Overcast OVC014 15 13 88% 76.02 0.0
04 04:55 Calm 16.09 Overcast OVC014 15 13 88% 76.02 0.0
04 04:35 Calm 16.09 Overcast OVC016 15 13 88% 76.02 0.0
04 04:15 E 6 16.09 Mostly Cloudy BKN017 BKN025 14 13 94% 76 0.0
04 03:55 E 6 16.09 A Few Clouds FEW014 14 13 94% 76.02 0.0
04 03:35 Calm 16.09 Fair CLR 14 13 94% 76 0.0
04 03:15 Calm 16.09 Mostly Cloudy BKN014 15 13 88% 76 0.0
04 02:55 E 6 16.09 Overcast OVC014 15 13 88% 76 0.0
04 02:35 SE 6 16.09 Mostly Cloudy BKN015 BKN019 15 14 94% 76 0.0
04 02:15 Calm 16.09 Overcast OVC014 15 14 94% 76 0.0
04 01:55 Calm 16.09 Overcast OVC012 16 14 88% 76 0.0
04 01:35 Calm 16.09 Overcast OVC012 16 14 88% 76.02 0.0
04 01:15 Calm 16.09 Overcast OVC012 16 13 83% 76.02 0.0
04 00:55 Calm 16.09 Overcast OVC012 16 14 88% 76.02 0.0
04 00:35 SW 7 16.09 Overcast OVC013 16 14 88% 76.02 0.0
04 00:15 Calm 16.09 Overcast OVC013 16 14 88% 76.02 0.0
03 23:55 Calm 16.09 Overcast OVC013 16 14 88% 76.02 0.0
03 23:35 Calm 16.09 Overcast OVC013 16 14 88% 76.02 0.0
03 23:15 Calm 16.09 Overcast OVC012 16 14 88% 76.02 0.0
03 22:55 Calm 16.09 Overcast OVC012 15 14 94% 76.02 0.0
03 22:35 Calm 16.09 Overcast OVC011 15 14 94% 76.02 0.0
03 22:15 Calm 16.09 Partly Cloudy SCT013 15 14 94% 76.05 0.0
03 21:55 Calm 16.09 Fair CLR 15 14 94% 76.05 0.0
03 21:35 W 7 16.09 Fair CLR 15 14 94% 76.02 0.0
03 21:15 W 11 16.09 Fair CLR 16 14 88% 76.02 0.0
03 20:55 W 13 16.09 Fair CLR 16 14 88% 76 0.0
03 20:35 W 15 16.09 Fair CLR 16 14 88% 76 0.0
03 20:15 W 13 G 24 16.09 Fair CLR 17 14 83% 75.97 0.0
03 19:55 W 19 16.09 Fair CLR 17 13 77% 75.95 0.0
03 19:35 W 13 G 22 16.09 Fair CLR 18 13 73% 75.95 0.0
03 19:15 W 9 G 22 16.09 Fair CLR 19 13 68% 75.95 0.0
03 18:55 W 17 16.09 Fair CLR 20 13 64% 75.95 0.0
03 18:35 W 17 16.09 Fair CLR 21 13 60% 75.95 0.0
03 18:15 W 20 G 31 16.09 Fair CLR 22 13 57% 75.95 0.0
03 17:55 W 19 G 30 16.09 Fair CLR 22 13 57% 75.92 0.0
03 17:35 W 19 G 31 16.09 Fair CLR 23 13 53% 75.92 0.0
03 17:15 W 22 16.09 Fair CLR 24 13 50% 25 75.92 0.0
03 16:55 W 22 G 31 16.09 Fair CLR 24 13 50% 25 75.92 0.0
03 16:35 W 22 G 33 16.09 Fair CLR 24 13 50% 25 75.92 0.0
03 16:15 W 22 16.09 Fair CLR 25 13 47% 26 75.92 0.0
03 15:55 W 17 G 30 16.09 Fair CLR 25 14 51% 26 75.95 0.0
03 15:35 W 22 G 35 16.09 Fair CLR 25 14 51% 26 75.97 0.0
03 15:15 W 22 16.09 Fair CLR 25 14 51% 26 75.97 0.0
03 14:55 W 20 G 30 16.09 Fair CLR 25 14 51% 26 75.97 0.0
03 14:35 W 26 16.09 Fair CLR 26 14 48% 26 76 0.0
03 14:15 W 24 16.09 Fair CLR 26 14 48% 26 76 0.0
03 13:55 W 19 16.09 Fair CLR 26 13 45% 26 76 0.0
03 13:35 W 20 16.09 Fair CLR 26 13 45% 26 76.02 0.0
03 13:15 NW 15 16.09 Fair CLR 25 13 47% 26 76.02 0.0
03 12:55 SW 15 16.09 Fair CLR 24 13 50% 25 76.05 0.0
03 12:35 Vrbl 7 G 19 16.09 Fair CLR 23 13 53% 76.07 0.0
03 12:15 Vrbl 9 16.09 Fair CLR 23 13 53% 76.07 0.0
03 11:55 Vrbl 7 16.09 Fair CLR 22 13 57% 76.1 0.0
03 11:35 SW 9 16.09 Fair CLR 21 13 60% 76.12 0.0
03 11:15 NW 11 16.09 Fair CLR 20 13 64% 76.12 0.0
03 10:55 W 9 16.09 Fair CLR 19 13 68% 76.15 0.0
03 10:35 NW 6 16.09 Fair CLR 18 13 73% 76.15 0.0
03 10:15 Calm 16.09 Partly Cloudy SCT015 18 13 73% 76.15 0.0
03 09:55 Vrbl 7 16.09 Overcast OVC014 17 13 77% 76.15 0.0
03 09:35 Calm 16.09 Overcast OVC013 16 13 83% 76.17 0.0
03 09:15 Calm 16.09 Overcast OVC013 15 13 88% 76.17 0.0
03 08:55 Calm 16.09 Overcast OVC013 15 13 88% 76.2 0.0
03 08:35 SW 6 16.09 Overcast OVC013 15 13 88% 76.2 0.0
03 08:15 Calm 16.09 Overcast OVC013 15 13 88% 76.2 0.0
03 07:55 SW 9 16.09 Overcast OVC013 14 13 94% 76.2 0.0
03 07:35 SW 6 16.09 Overcast OVC013 15 13 88% 76.17 0.0
03 07:15 Calm 16.09 Overcast OVC014 14 13 94% 76.17 0.0
03 06:55 Calm 16.09 Overcast OVC015 14 13 94% 76.15 0.0
03 06:35 Calm 16.09 Overcast OVC016 14 13 94% 76.15 0.0
03 06:15 Calm 16.09 Overcast OVC015 14 13 94% 76.15 0.0
03 05:55 W 6 16.09 Overcast OVC015 14 13 94% 76.15 0.0
03 05:35 Calm 16.09 Overcast OVC015 14 13 94% 76.15 0.0
03 05:15 Calm 16.09 Overcast OVC017 14 13 94% 76.17 0.0
03 04:55 Calm 16.09 Overcast OVC016 14 13 94% 76.17 0.0
03 04:35 Calm 16.09 Overcast OVC014 14 13 94% 76.17 0.0
03 04:15 Calm 16.09 Overcast OVC016 14 13 94% 76.17 0.0
03 03:55 W 7 16.09 Overcast OVC015 14 13 94% 76.17 0.0
03 03:35 Calm 16.09 Overcast OVC013 14 13 94% 76.17 0.0
03 03:15 NW 6 16.09 Mostly Cloudy BKN013 14 13 94% 76.2 0.0
03 02:55 Calm 16.09 Partly Cloudy SCT013 SCT038 14 13 94% 76.2 0.0
03 02:35 NW 6 16.09 A Few Clouds FEW013 15 13 88% 76.2 0.0
03 02:15 NW 7 16.09 Fair CLR 15 13 88% 76.2 0.0
03 01:55 NW 7 16.09 Mostly Cloudy BKN014 15 14 94% 76.23 0.0
03 01:35 W 9 16.09 Overcast OVC013 16 14 88% 76.23 0.0
03 01:15 W 9 16.09 Overcast OVC011 16 14 88% 76.23 0.0
03 00:55 Calm 16.09 Overcast OVC010 16 15 94% 76.25 0.0
03 00:35 SW 6 16.09 Overcast OVC011 16 15 94% 76.25 0.0
03 00:15 Calm 16.09 Overcast OVC009 16 15 94% 76.25 0.0
02 23:55 Calm 16.09 Overcast OVC009 16 15 94% 76.25 0.0
02 23:35 W 9 16.09 Overcast OVC009 16 15 94% 76.25 0.0
02 23:15 Calm 16.09 Mostly Cloudy BKN012 15 15 100% 76.25 0.0
02 22:55 W 6 16.09 A Few Clouds FEW012 15 15 100% 76.25 0.0
02 22:35 W 7 16.09 Fair CLR 15 14 94% 76.25 0.0
02 22:15 SW 7 16.09 Fair CLR 15 14 94% 76.25 0.0
02 21:55 SW 7 16.09 Fair CLR 16 15 94% 76.28 0.0
02 21:35 W 11 16.09 Fair CLR 16 15 94% 76.28 0.0
02 21:15 W 11 16.09 Fair CLR 17 15 88% 76.25 0.0
02 20:55 W 11 16.09 Fair CLR 17 15 88% 76.25 0.0
02 20:35 W 11 16.09 Fair CLR 18 14 78% 76.23 0.0
02 20:15 SW 11 16.09 Fair CLR 18 14 78% 76.2 0.0
02 19:55 SW 9 16.09 Fair CLR 19 14 73% 76.2 0.0
02 19:35 SW 11 16.09 Fair CLR 19 14 73% 76.2 0.0
02 19:15 W 13 16.09 Fair CLR 20 13 64% 76.17 0.0
02 18:55 W 19 16.09 Fair CLR 22 11 50% 76.17 0.0
02 18:35 W 20 16.09 Fair CLR 23 11 47% 76.17 0.0
02 18:15 W 20 G 30 16.09 Fair CLR 24 10 41% 25 76.17 0.0
02 17:55 NW 22 G 31 16.09 Fair CLR 24 10 41% 25 76.17 0.0
02 17:35 NW 24 16.09 Fair CLR 25 10 39% 26 76.15 0.0
02 17:15 NW 17 G 30 16.09 Fair CLR 25 10 39% 26 76.15 0.0
02 16:55 NW 24 G 35 16.09 Fair CLR 25 10 39% 26 76.15 0.0
02 16:35 NW 26 16.09 Fair CLR 26 10 37% 26 76.15 0.0
02 16:15 NW 30 16.09 Fair CLR 27 9 32% 27 76.15 0.0
02 15:55 W 19 16.09 Fair CLR 27 10 34% 27 76.15 0.0
02 15:35 W 26 16.09 Fair CLR 26 11 39% 26 76.15 0.0
02 15:15 W 28 16.09 Fair CLR 27 11 37% 27 76.17 0.0
02 14:55 W 30 16.09 Fair CLR 26 11 39% 26 76.17 0.0
02 14:35 W 28 16.09 Fair CLR 27 11 37% 27 76.2 0.0
02 14:15 W 26 16.09 Fair CLR 27 10 34% 27 76.2 0.0
02 13:55 W 22 16.09 Fair CLR 26 10 37% 26 76.2 0.0
02 13:35 W 19 16.09 Fair CLR 26 10 37% 26 76.23 0.0
02 13:15 Vrbl 9 G 19 16.09 Fair CLR 26 9 34% 26 76.23 0.0
02 12:55 W 13 16.09 Fair CLR 25 9 36% 26 76.25 0.0
02 12:35 W 13 16.09 Fair CLR 25 9 36% 26 76.28 0.0
02 12:15 Vrbl 11 16.09 Fair CLR 24 10 41% 25 76.3 0.0
02 11:55 Vrbl 7 G 19 16.09 Fair CLR 23 11 47% 76.3 0.0
02 11:35 W 6 16.09 Fair CLR 22 10 47% 76.33 0.0
02 11:15 Vrbl 7 16.09 Fair CLR 21 10 50% 76.33 0.0
02 10:55 Vrbl 7 16.09 Fair CLR 20 10 53% 76.35 0.0
02 10:35 Vrbl 7 16.09 Fair CLR 19 11 60% 76.33 0.0
02 10:15 Vrbl 7 16.09 Fair CLR 19 11 60% 76.33 0.0
02 09:55 W 7 16.09 Fair CLR 17 10 64% 76.33 0.0
02 09:35 Vrbl 6 16.09 Fair CLR 16 11 72% 76.33 0.0
02 09:15 S 6 16.09 Fair CLR 16 11 72% 76.33 0.0
02 08:55 Calm 16.09 Fair CLR 15 11 77% 76.35 0.0
02 08:35 E 7 16.09 Fair CLR 14 11 82% 76.33 0.0
02 08:15 E 11 16.09 Fair CLR 13 11 88% 76.33 0.0
02 07:55 E 9 16.09 Fair CLR 12 11 94% 76.33 0.0
02 07:35 Calm 16.09 Fair CLR 10 9 94% 76.35 0.0
02 07:15 Calm 14.48 Fair CLR 9 8 94% 76.33 0.0
02 06:55 NE 6 16.09 Fair CLR 9 8 94% 76.33 0.0
02 06:35 Calm 16.09 A Few Clouds FEW010 9 9 100% 76.35 0.0
02 06:15 Calm 14.48 Mostly Cloudy BKN011 8 8 100% 76.33 0.0
02 05:55 Calm 16.09 A Few Clouds FEW011 9 9 100% 76.33 0.0
02 05:35 Calm 16.09 A Few Clouds FEW011 FEW023 10 9 94% 76.3 0.0
Date Time (pdt) Wind (kph) Vis. (km) Weather Sky Cond. Air Dwpt Max. Min. Relative Humidity Wind Chill (°C) Heat Index (°C) altimeter (cm) sea level (mb) 1 hr 3 hr 6 hr
6 hour
Temperature (ºC) Pressure Precipitation (cm)